createdAt,value
2022-11-22T00:00:03.403Z,99831.75
2022-11-22T00:05:33.870Z,99848.84
2022-11-22T00:10:40.206Z,99845.41
2022-11-22T00:15:47.466Z,99844.56
2022-11-22T00:20:55.615Z,99839.44
2022-11-22T00:26:02.255Z,99843.72
2022-11-22T00:31:08.665Z,99842.03
2022-11-22T00:36:17.468Z,99841.16
2022-11-22T00:41:23.910Z,99845.44
2022-11-22T00:46:30.531Z,99849.69
2022-11-22T00:51:38.437Z,99841.16
2022-11-22T00:56:44.654Z,99843.72
2022-11-22T01:01:51.021Z,99848.88
2022-11-22T01:06:58.903Z,99848.88
2022-11-22T01:12:05.578Z,99848.88
2022-11-22T01:17:11.999Z,99851.44
2022-11-22T01:22:19.796Z,99853.16
2022-11-22T01:27:26.159Z,99853.13
2022-11-22T01:32:32.270Z,99860.00
2022-11-22T01:37:39.767Z,99864.28
2022-11-22T01:42:50.127Z,99869.41
2022-11-22T01:47:56.553Z,99871.13
2022-11-22T01:53:11.084Z,99892.53
2022-11-22T01:58:18.219Z,99907.09
2022-11-22T02:03:25.557Z,99907.94
2022-11-22T02:08:41.718Z,99907.97
2022-11-22T02:13:48.700Z,99913.09
2022-11-22T02:18:54.701Z,99912.22
2022-11-22T02:24:09.300Z,99918.22
2022-11-22T02:29:17.595Z,99922.50
2022-11-22T02:34:23.829Z,99919.09
2022-11-22T02:39:33.282Z,99919.91
2022-11-22T02:44:42.203Z,99906.22
2022-11-22T02:49:48.512Z,99898.50
2022-11-22T02:54:54.636Z,99887.41
2022-11-22T03:00:02.414Z,99889.09
2022-11-22T03:05:10.115Z,99884.81
2022-11-22T03:10:16.673Z,99891.69
2022-11-22T03:15:24.242Z,99891.66
2022-11-22T03:20:31.583Z,99885.69
2022-11-22T03:25:39.962Z,99883.97
2022-11-22T03:30:47.760Z,99883.97
2022-11-22T03:35:58.345Z,99874.56
2022-11-22T03:41:05.810Z,99871.97
2022-11-22T03:46:17.670Z,99885.69
2022-11-22T03:51:24.196Z,99885.69
2022-11-22T03:56:30.174Z,99895.09
2022-11-22T04:01:37.786Z,99896.81
2022-11-22T04:06:44.080Z,99899.38
2022-11-22T04:11:50.407Z,99888.25
2022-11-22T04:16:58.242Z,99885.69
2022-11-22T04:22:04.325Z,99867.72
2022-11-22T04:27:10.692Z,99871.13
2022-11-22T04:32:35.730Z,99877.13
2022-11-22T04:37:42.055Z,99878.84
2022-11-22T04:43:05.355Z,99881.41
2022-11-22T04:48:13.766Z,99888.25
2022-11-22T04:53:21.078Z,99880.56
2022-11-22T04:58:27.732Z,99882.25
2022-11-22T05:03:35.567Z,99882.28
2022-11-22T05:08:42.032Z,99894.22
2022-11-22T05:13:48.258Z,99896.81
2022-11-22T05:19:00.559Z,99908.78
2022-11-22T05:24:07.866Z,99911.38
2022-11-22T05:29:13.885Z,99914.78
2022-11-22T05:34:21.677Z,99925.91
2022-11-22T05:39:28.021Z,99930.22
2022-11-22T05:44:34.483Z,99937.06
2022-11-22T05:49:42.080Z,99939.63
2022-11-22T05:54:48.145Z,99952.47
2022-11-22T05:59:54.330Z,99951.63
2022-11-22T06:05:02.603Z,99948.16
2022-11-22T06:10:10.261Z,99944.75
2022-11-22T06:15:16.675Z,99949.84
2022-11-22T06:20:24.668Z,99937.88
2022-11-22T06:25:31.422Z,99944.72
2022-11-22T06:30:37.673Z,99941.28
2022-11-22T06:35:45.440Z,99952.41
2022-11-22T06:40:51.792Z,99960.97
2022-11-22T06:45:58.825Z,99959.25
2022-11-22T06:51:08.952Z,99958.41
2022-11-22T06:56:17.410Z,99967.81
2022-11-22T07:01:26.279Z,99978.13
2022-11-22T07:06:35.513Z,99971.28
2022-11-22T07:11:42.557Z,99962.72
2022-11-22T07:16:48.913Z,99960.19
2022-11-22T07:21:56.604Z,99970.47
2022-11-22T07:27:02.763Z,99975.59
2022-11-22T07:32:09.130Z,99977.34
2022-11-22T07:37:16.920Z,99991.91
2022-11-22T07:42:26.127Z,99991.06
2022-11-22T07:47:33.906Z,100000.50
2022-11-22T07:52:41.698Z,99997.09
2022-11-22T07:57:47.843Z,100003.94
2022-11-22T08:02:54.139Z,100007.34
2022-11-22T08:08:01.853Z,100002.22
2022-11-22T08:13:07.995Z,99997.13
2022-11-22T08:18:14.155Z,100006.53
2022-11-22T08:23:21.679Z,99996.25
2022-11-22T08:28:27.921Z,99998.00
2022-11-22T08:33:34.043Z,100004.84
2022-11-22T08:38:41.824Z,100016.91
2022-11-22T08:43:48.032Z,100015.19
2022-11-22T08:48:54.968Z,100009.19
2022-11-22T08:54:02.936Z,100000.63
2022-11-22T08:59:09.782Z,100010.06
2022-11-22T09:04:16.201Z,100013.50
2022-11-22T09:09:37.227Z,100017.78
2022-11-22T09:14:43.944Z,99997.25
2022-11-22T09:19:50.236Z,99986.06
2022-11-22T09:24:57.921Z,100003.25
2022-11-22T09:30:04.448Z,100013.53
2022-11-22T09:35:11.255Z,100001.53
2022-11-22T09:40:19.388Z,100006.72
2022-11-22T09:46:11.128Z,100003.25
2022-11-22T09:51:21.725Z,100008.41
2022-11-22T09:56:31.253Z,100003.25
2022-11-22T10:01:42.023Z,100026.44
2022-11-22T10:06:52.406Z,100023.00
2022-11-22T10:12:08.981Z,100022.13
2022-11-22T10:17:43.129Z,100029.84
2022-11-22T10:22:50.865Z,100023.84
2022-11-22T10:28:07.709Z,100031.56
2022-11-22T10:33:24.760Z,100033.28
2022-11-22T10:38:53.478Z,100044.44
2022-11-22T10:44:17.549Z,100039.28
2022-11-22T10:49:38.378Z,100031.56
2022-11-22T10:54:54.035Z,100032.44
2022-11-22T11:00:19.111Z,100018.72
2022-11-22T11:06:00.933Z,100020.41
2022-11-22T11:11:06.284Z,100017.81
2022-11-22T11:16:18.924Z,100010.06
2022-11-22T11:21:26.771Z,100004.09
2022-11-22T11:26:36.387Z,100010.94
2022-11-22T11:31:48.246Z,100010.09
2022-11-22T11:36:58.805Z,99988.63
2022-11-22T11:42:26.404Z,99988.63
2022-11-22T11:47:37.329Z,99985.16
2022-11-22T11:52:54.452Z,99989.47
2022-11-22T11:58:00.772Z,99990.31
2022-11-22T12:03:13.929Z,99992.91
2022-11-22T12:08:38.185Z,99995.50
2022-11-22T12:14:18.523Z,99998.91
2022-11-22T12:19:30.816Z,100004.94
2022-11-22T12:25:03.133Z,100001.50
2022-11-22T12:30:15.259Z,99998.91
2022-11-22T12:35:26.180Z,99995.50
2022-11-22T12:40:41.770Z,100004.94
2022-11-22T12:45:51.717Z,100003.19
2022-11-22T12:51:09.049Z,99999.78
2022-11-22T12:56:32.700Z,99990.34
2022-11-22T13:01:51.763Z,99980.06
2022-11-22T13:07:08.964Z,99971.47
2022-11-22T13:12:18.994Z,99969.75
2022-11-22T13:17:28.512Z,99980.94
2022-11-22T13:22:47.816Z,99976.66
2022-11-22T13:27:59.321Z,99980.91
2022-11-22T13:33:06.223Z,99994.69
2022-11-22T13:38:18.897Z,99998.09
2022-11-22T13:43:51.993Z,99994.66
2022-11-22T13:49:17.373Z,99989.53
2022-11-22T13:55:02.803Z,99985.22
2022-11-22T14:00:48.896Z,99991.22
2022-11-22T14:05:59.246Z,99985.22
2022-11-22T14:11:35.222Z,99982.66
2022-11-22T14:17:01.459Z,99992.13
2022-11-22T14:22:20.819Z,100001.53
2022-11-22T14:27:45.513Z,100005.84
2022-11-22T14:33:02.973Z,99997.25
2022-11-22T14:38:33.515Z,99997.25
2022-11-22T14:43:43.311Z,99998.09
2022-11-22T14:48:57.966Z,99997.25
2022-11-22T14:54:07.852Z,100010.97
2022-11-22T14:59:59.356Z,99995.56
2022-11-22T15:09:11.063Z,100008.41
2022-11-22T15:11:13.153Z,100007.56
2022-11-22T16:00:26.837Z,100007.53
2022-11-22T16:06:07.516Z,100010.97
2022-11-22T16:11:04.951Z,100019.56
2022-11-22T16:16:23.136Z,100024.72
2022-11-22T16:21:32.623Z,100032.41
2022-11-22T16:26:39.687Z,100033.28
2022-11-22T16:31:49.395Z,100043.59
2022-11-22T16:36:57.486Z,100040.13
2022-11-22T16:42:05.148Z,100038.41
2022-11-22T16:47:16.730Z,100010.97
2022-11-22T16:52:27.541Z,100017.81
2022-11-22T16:57:34.099Z,100003.25
2022-11-22T17:02:44.180Z,100021.25
2022-11-22T17:07:53.003Z,100021.25
2022-11-22T17:12:59.984Z,100029.81
2022-11-22T17:18:09.182Z,100022.09
2022-11-22T17:23:23.339Z,100023.81
2022-11-22T17:28:31.048Z,100022.97
2022-11-22T17:33:40.420Z,100028.94
2022-11-22T17:38:50.152Z,100038.38
2022-11-22T17:43:57.107Z,100039.22
2022-11-22T17:49:05.443Z,100043.53
2022-11-22T17:54:14.711Z,100048.69
2022-11-22T17:59:23.044Z,100052.97
2022-11-22T18:04:31.300Z,100060.66
2022-11-22T18:09:40.943Z,100071.78
2022-11-22T18:14:49.608Z,100078.66
2022-11-22T18:19:57.088Z,100083.78
2022-11-22T18:25:07.771Z,100098.34
2022-11-22T18:30:17.335Z,100093.22
2022-11-22T18:35:24.732Z,100091.50
2022-11-22T18:40:34.876Z,100076.09
2022-11-22T18:45:42.476Z,100078.66
2022-11-22T18:50:49.541Z,100085.50
2022-11-22T18:56:05.293Z,100078.66
2022-11-22T19:01:15.532Z,100080.34
2022-11-22T19:06:23.171Z,100078.63
2022-11-22T19:11:33.708Z,100080.34
2022-11-22T19:16:41.454Z,100092.34
2022-11-22T19:21:50.322Z,100097.50
2022-11-22T19:26:59.897Z,100100.91
2022-11-22T19:32:09.120Z,100096.59
2022-11-22T19:37:16.752Z,100099.19
2022-11-22T19:42:27.257Z,100106.00
2022-11-22T19:47:34.737Z,100109.44
2022-11-22T19:52:43.167Z,100117.16
2022-11-22T19:57:51.328Z,100119.75
2022-11-22T20:02:59.833Z,100124.03
2022-11-22T20:08:07.801Z,100128.31
2022-11-22T20:13:19.318Z,100130.03
2022-11-22T20:18:27.063Z,100134.28
2022-11-22T20:23:35.232Z,100145.44
2022-11-22T20:28:49.767Z,100131.75
2022-11-22T20:33:59.785Z,100135.16
2022-11-22T20:39:10.725Z,100136.03
2022-11-22T20:44:24.582Z,100129.13
2022-11-22T20:49:33.250Z,100126.56
2022-11-22T20:54:40.803Z,100125.72
2022-11-22T20:59:49.008Z,100139.41
2022-11-22T21:05:01.025Z,100144.56
2022-11-22T21:10:10.056Z,100142.88
2022-11-22T21:15:19.643Z,100135.13
2022-11-22T21:20:26.914Z,100140.28
2022-11-22T21:25:33.647Z,100134.25
2022-11-22T21:30:41.564Z,100147.13
2022-11-22T21:35:48.605Z,100147.16
2022-11-22T21:41:10.775Z,100148.84
2022-11-22T21:46:25.467Z,100146.31
2022-11-22T21:51:32.340Z,100135.16
2022-11-22T21:56:38.776Z,100124.00
2022-11-22T22:01:46.842Z,100130.84
2022-11-22T22:06:53.716Z,100121.41
2022-11-22T22:12:00.096Z,100121.41
2022-11-22T22:17:07.981Z,100119.69
2022-11-22T22:22:14.438Z,100109.41
2022-11-22T22:27:21.286Z,100112.00
2022-11-22T22:32:29.760Z,100114.56
2022-11-22T22:37:36.446Z,100123.97
2022-11-22T22:42:44.534Z,100109.38
2022-11-22T22:47:52.944Z,100104.25
2022-11-22T22:52:59.633Z,100103.41
2022-11-22T22:58:08.439Z,100094.81
2022-11-22T23:03:18.898Z,100085.41
2022-11-22T23:08:25.756Z,100076.81
2022-11-22T23:13:33.082Z,100078.53
2022-11-22T23:18:43.845Z,100077.66
2022-11-22T23:23:50.220Z,100072.53
2022-11-22T23:28:56.709Z,100068.25
2022-11-22T23:34:05.202Z,100063.09
2022-11-22T23:39:11.977Z,100059.66
2022-11-22T23:44:18.595Z,100065.66
2022-11-22T23:49:26.372Z,100064.78
2022-11-22T23:54:33.047Z,100059.66
2022-11-22T23:59:39.511Z,100050.25
